createdAt,value
2023-04-14T00:02:36.237Z,35.50
2023-04-14T00:05:38.352Z,35.30
2023-04-14T00:08:40.889Z,34.20
2023-04-14T00:11:42.955Z,35.30
2023-04-14T00:14:45.277Z,34.50
2023-04-14T00:17:47.775Z,33.90
2023-04-14T00:20:50.112Z,33.80
2023-04-14T00:23:52.212Z,34.50
2023-04-14T00:26:54.680Z,36.10
2023-04-14T00:29:56.876Z,36.80
2023-04-14T00:32:59.232Z,37.80
2023-04-14T00:36:03.077Z,38.70
2023-04-14T00:39:05.496Z,37.70
2023-04-14T00:42:07.449Z,37.10
2023-04-14T00:45:10.330Z,36.60
2023-04-14T00:48:14.004Z,36.40
2023-04-14T00:51:16.584Z,36.90
2023-04-14T00:54:20.316Z,36.30
2023-04-14T00:57:22.579Z,37.00
2023-04-14T01:00:24.504Z,37.00
2023-04-14T01:03:26.992Z,36.90
2023-04-14T01:06:29.426Z,35.80
2023-04-14T01:09:32.049Z,34.40
2023-04-14T01:12:57.893Z,33.20
2023-04-14T01:16:04.764Z,32.40
2023-04-14T01:19:32.734Z,32.40
2023-04-14T01:22:39.065Z,32.40
2023-04-14T01:26:08.773Z,33.70
2023-04-14T01:29:29.799Z,33.60
2023-04-14T01:32:36.228Z,33.60
2023-04-14T01:35:49.372Z,33.20
2023-04-14T01:38:53.944Z,33.70
2023-04-14T01:42:02.093Z,34.50
2023-04-14T01:45:11.283Z,35.30
2023-04-14T01:48:20.296Z,36.40
2023-04-14T01:51:23.702Z,36.90
2023-04-14T01:54:27.299Z,36.20
2023-04-14T01:57:29.876Z,35.70
2023-04-14T02:00:34.763Z,36.00
2023-04-14T02:03:38.180Z,36.30
2023-04-14T02:06:41.991Z,36.30
2023-04-14T02:09:45.652Z,35.30
2023-04-14T02:12:50.974Z,34.40
2023-04-14T02:15:53.413Z,33.60
2023-04-14T02:18:55.847Z,32.90
2023-04-14T02:21:58.711Z,32.70
2023-04-14T02:25:01.213Z,31.80
2023-04-14T02:28:09.412Z,31.30
2023-04-14T02:31:16.654Z,31.90
2023-04-14T02:34:24.882Z,31.20
2023-04-14T02:37:34.521Z,31.10
2023-04-14T02:40:41.126Z,31.40
2023-04-14T02:43:58.577Z,31.60
2023-04-14T02:47:07.409Z,31.40
2023-04-14T02:50:14.032Z,32.00
2023-04-14T02:53:21.931Z,31.50
2023-04-14T02:56:25.641Z,31.10
2023-04-14T02:59:29.402Z,30.50
2023-04-14T03:02:32.572Z,30.00
2023-04-14T03:05:35.611Z,29.70
2023-04-14T03:08:38.912Z,29.70
2023-04-14T03:11:43.127Z,29.60
2023-04-14T03:14:45.797Z,29.30
2023-04-14T03:17:54.196Z,29.10
2023-04-14T03:21:00.515Z,28.90
2023-04-14T03:24:03.672Z,28.90
2023-04-14T03:27:12.235Z,29.20
2023-04-14T03:30:15.500Z,28.80
2023-04-14T03:33:22.599Z,28.90
2023-04-14T03:36:26.162Z,29.10
2023-04-14T03:39:34.650Z,28.90
2023-04-14T03:42:38.865Z,29.20
2023-04-14T03:45:41.479Z,29.60
2023-04-14T03:48:46.621Z,29.50
2023-04-14T03:51:53.632Z,29.90
2023-04-14T03:54:59.604Z,30.00
2023-04-14T03:58:03.265Z,30.00
2023-04-14T04:01:06.666Z,30.10
2023-04-14T04:04:09.971Z,29.90
2023-04-14T04:07:13.863Z,30.30
2023-04-14T04:10:17.556Z,30.10
2023-04-14T04:13:21.422Z,29.70
2023-04-14T04:16:26.739Z,29.30
2023-04-14T04:19:29.965Z,29.20
2023-04-14T04:22:35.365Z,29.10
2023-04-14T04:25:38.545Z,29.10
2023-04-14T04:28:41.722Z,29.20
2023-04-14T04:31:43.886Z,29.10
2023-04-14T04:34:48.012Z,28.80
2023-04-14T04:37:50.758Z,28.70
2023-04-14T04:40:52.972Z,28.70
2023-04-14T04:43:56.024Z,28.50
2023-04-14T04:46:58.359Z,28.50
2023-04-14T04:50:00.531Z,28.50
2023-04-14T04:53:02.937Z,28.40
2023-04-14T04:56:05.466Z,28.60
2023-04-14T04:59:07.807Z,28.80
2023-04-14T05:02:09.794Z,28.90
2023-04-14T05:05:12.048Z,28.90
2023-04-14T05:08:15.384Z,29.00
2023-04-14T05:11:17.830Z,29.10
2023-04-14T05:14:19.851Z,29.30
2023-04-14T05:17:22.205Z,29.90
2023-04-14T05:20:24.132Z,29.50
2023-04-14T05:23:26.476Z,30.10
2023-04-14T05:26:48.829Z,30.50
2023-04-14T05:29:51.830Z,30.60
2023-04-14T05:32:54.498Z,32.00
2023-04-14T05:35:56.918Z,31.80
2023-04-14T05:38:58.884Z,31.80
2023-04-14T05:42:01.308Z,31.70
2023-04-14T05:45:04.166Z,32.80
2023-04-14T05:48:06.913Z,32.70
2023-04-14T05:51:08.916Z,33.40
2023-04-14T05:54:11.102Z,33.30
2023-04-14T05:57:13.061Z,33.50
2023-04-14T06:00:15.683Z,32.20
2023-04-14T06:03:17.818Z,32.20
2023-04-14T06:06:20.292Z,31.50
2023-04-14T06:09:22.318Z,31.60
2023-04-14T06:12:24.677Z,32.10
2023-04-14T06:15:29.599Z,32.50
2023-04-14T06:18:31.838Z,32.60
2023-04-14T06:21:33.852Z,33.30
2023-04-14T06:24:36.002Z,33.10
2023-04-14T06:27:38.208Z,32.70
2023-04-14T06:30:40.788Z,33.10
2023-04-14T06:33:44.080Z,33.30
2023-04-14T06:36:47.041Z,33.20
2023-04-14T06:39:49.291Z,34.40
2023-04-14T06:42:51.595Z,34.20
2023-04-14T06:45:53.707Z,35.90
2023-04-14T06:48:55.924Z,34.90
2023-04-14T06:51:57.916Z,33.80
2023-04-14T06:55:00.326Z,32.60
2023-04-14T06:58:02.422Z,32.40
2023-04-14T07:01:06.874Z,33.40
2023-04-14T07:04:09.076Z,33.20
2023-04-14T07:07:11.749Z,34.10
2023-04-14T07:10:14.351Z,34.50
2023-04-14T07:13:16.717Z,34.50
2023-04-14T07:16:18.888Z,34.50
2023-04-14T07:19:21.294Z,34.70
2023-04-14T07:22:23.477Z,33.90
2023-04-14T07:25:26.247Z,35.00
2023-04-14T07:28:28.305Z,33.30
2023-04-14T07:31:33.968Z,33.90
2023-04-14T07:34:35.968Z,33.70
2023-04-14T07:37:38.286Z,33.70
2023-04-14T07:40:42.665Z,33.60
2023-04-14T07:43:45.197Z,33.00
2023-04-14T07:47:03.572Z,33.60
2023-04-14T07:50:34.399Z,33.10
2023-04-14T07:57:10.830Z,32.80
2023-04-14T08:00:15.783Z,32.90
2023-04-14T08:03:18.199Z,32.10
2023-04-14T08:06:20.836Z,32.80
2023-04-14T08:09:23.138Z,32.80
2023-04-14T08:12:25.592Z,33.30
2023-04-14T08:15:27.994Z,32.60
2023-04-14T08:18:30.421Z,32.70
2023-04-14T08:21:33.139Z,34.30
2023-04-14T08:24:37.585Z,33.40
2023-04-14T08:27:40.075Z,33.20
2023-04-14T08:30:42.066Z,32.40
2023-04-14T08:33:44.465Z,31.90
2023-04-14T08:36:47.648Z,32.40
2023-04-14T08:39:49.887Z,32.30
2023-04-14T08:42:51.902Z,31.80
2023-04-14T08:45:55.484Z,31.80
2023-04-14T08:49:05.898Z,31.10
2023-04-14T08:52:13.965Z,30.60
2023-04-14T08:55:19.187Z,30.10
2023-04-14T08:58:23.184Z,30.10
2023-04-14T09:01:25.567Z,29.90
2023-04-14T09:04:29.708Z,30.20
2023-04-14T09:07:32.100Z,29.70
2023-04-14T09:10:57.092Z,30.50
2023-04-14T09:14:01.429Z,30.30
2023-04-14T09:17:03.923Z,30.10
2023-04-14T09:20:37.434Z,30.30
2023-04-14T09:23:29.665Z,30.00
2023-04-14T09:26:32.036Z,29.90
2023-04-14T09:29:35.696Z,29.70
2023-04-14T09:32:38.709Z,29.40
2023-04-14T09:35:49.150Z,30.50
2023-04-14T09:38:52.672Z,30.00
2023-04-14T09:41:54.986Z,29.60
2023-04-14T09:44:59.136Z,30.00
2023-04-14T09:48:08.242Z,30.00
2023-04-14T09:51:10.714Z,30.40
2023-04-14T09:54:12.911Z,31.00
2023-04-14T09:57:26.287Z,31.10
2023-04-14T10:00:31.700Z,31.10
2023-04-14T10:03:39.840Z,30.70
2023-04-14T10:06:42.054Z,31.00
2023-04-14T10:09:48.352Z,30.60
2023-04-14T10:12:53.900Z,30.20
2023-04-14T10:15:56.372Z,29.70
2023-04-14T10:19:00.363Z,30.40
2023-04-14T10:22:06.630Z,30.00
2023-04-14T10:25:13.227Z,29.60
2023-04-14T10:28:16.158Z,29.50
2023-04-14T10:31:26.255Z,29.20
2023-04-14T10:34:32.877Z,29.40
2023-04-14T10:37:35.170Z,28.20
2023-04-14T10:40:53.571Z,28.30
2023-04-14T10:43:55.726Z,28.50
2023-04-14T10:47:02.030Z,28.30
2023-04-14T10:50:17.888Z,28.10
2023-04-14T10:53:20.732Z,28.20
2023-04-14T10:56:24.901Z,28.20
2023-04-14T10:59:38.168Z,28.20
2023-04-14T11:03:04.722Z,28.10
2023-04-14T11:06:07.310Z,28.40
2023-04-14T11:09:33.150Z,28.50
2023-04-14T11:12:43.412Z,28.00
2023-04-14T11:16:01.496Z,27.80
2023-04-14T11:19:03.940Z,27.30
2023-04-14T11:22:06.022Z,27.70
2023-04-14T11:25:12.257Z,27.90
2023-04-14T11:28:16.425Z,27.70
2023-04-14T11:31:29.407Z,27.80
2023-04-14T11:34:51.636Z,28.10
2023-04-14T11:37:58.259Z,27.20
2023-04-14T11:41:35.325Z,26.00
2023-04-14T11:45:19.610Z,26.20
2023-04-14T11:48:24.570Z,26.30
2023-04-14T11:51:33.725Z,26.10
2023-04-14T11:54:39.744Z,25.10
2023-04-14T11:57:47.272Z,25.10
2023-04-14T12:00:59.170Z,25.40
2023-04-14T12:04:03.145Z,25.30
2023-04-14T12:07:11.531Z,25.80
2023-04-14T12:10:29.213Z,26.20
2023-04-14T12:14:05.005Z,26.60
2023-04-14T12:17:49.613Z,25.50
2023-04-14T12:21:09.762Z,25.40
2023-04-14T12:24:55.263Z,25.50
2023-04-14T12:28:20.976Z,25.30
2023-04-14T12:31:45.102Z,24.30
2023-04-14T12:34:57.984Z,24.60
2023-04-14T12:38:22.220Z,24.10
2023-04-14T12:41:32.027Z,24.30
2023-04-14T12:44:43.341Z,24.80
2023-04-14T12:48:08.910Z,24.40
2023-04-14T12:52:27.491Z,24.90
2023-04-14T12:57:05.535Z,24.90
2023-04-14T13:01:45.777Z,24.80
2023-04-14T13:06:35.756Z,24.30
2023-04-14T13:10:56.289Z,25.00
2023-04-14T13:14:33.508Z,25.10
2023-04-14T13:18:03.966Z,25.60
2023-04-14T13:21:43.248Z,25.50
2023-04-14T13:25:04.585Z,24.60
2023-04-14T13:29:32.640Z,24.60
2023-04-14T13:37:34.070Z,23.90
2023-04-14T13:46:02.322Z,24.90
2023-04-14T14:02:40.098Z,24.40
2023-04-14T14:26:47.798Z,24.30
2023-04-14T14:30:14.118Z,23.80
2023-04-14T14:53:19.802Z,24.40
2023-04-14T14:57:36.987Z,25.00
2023-04-14T15:01:06.097Z,25.00
2023-04-14T15:14:07.218Z,25.60
2023-04-14T15:26:28.175Z,28.10
2023-04-14T15:31:21.661Z,27.90
2023-04-14T15:45:12.747Z,28.30
2023-04-14T15:50:09.212Z,27.70
2023-04-14T15:58:50.874Z,28.40
2023-04-14T16:02:18.382Z,28.10
2023-04-14T16:09:43.503Z,28.90
2023-04-14T16:13:14.758Z,29.40
2023-04-14T16:17:30.629Z,29.00
2023-04-14T16:25:37.046Z,28.60
2023-04-14T16:29:38.458Z,29.20
2023-04-14T16:38:24.543Z,29.40
2023-04-14T17:05:05.419Z,29.60
2023-04-14T17:08:12.785Z,29.70
2023-04-14T17:11:46.220Z,29.50
2023-04-14T17:14:58.112Z,29.20
2023-04-14T17:18:04.341Z,29.40
2023-04-14T17:21:13.928Z,29.60
2023-04-14T17:24:23.855Z,29.70
2023-04-14T17:27:52.075Z,29.70
2023-04-14T17:31:23.565Z,29.70
2023-04-14T17:34:32.138Z,29.80
2023-04-14T17:38:05.884Z,29.90
2023-04-14T17:41:23.333Z,30.30
2023-04-14T17:44:38.575Z,30.20
2023-04-14T17:48:38.985Z,29.90
2023-04-14T17:51:57.751Z,29.90
2023-04-14T17:55:16.712Z,30.10
2023-04-14T17:58:27.686Z,30.10
2023-04-14T18:01:49.413Z,30.00
2023-04-14T18:05:00.008Z,30.00
2023-04-14T18:08:16.286Z,29.90
2023-04-14T18:11:32.651Z,29.70
2023-04-14T18:15:33.563Z,29.50
2023-04-14T18:19:00.313Z,29.60
2023-04-14T18:22:41.173Z,30.40
2023-04-14T18:32:45.148Z,30.20
2023-04-14T18:41:13.981Z,30.00
2023-04-14T18:58:56.270Z,30.40
2023-04-14T19:02:17.470Z,30.30
2023-04-14T19:05:35.028Z,30.70
2023-04-14T19:08:37.330Z,32.20
2023-04-14T19:11:54.888Z,31.90
2023-04-14T19:15:12.402Z,31.70
2023-04-14T19:29:12.392Z,31.30
2023-04-14T20:00:07.458Z,30.90
2023-04-14T20:04:10.694Z,30.40
2023-04-14T20:07:10.440Z,31.00
2023-04-14T20:11:08.271Z,31.00
2023-04-14T20:14:25.167Z,31.00
2023-04-14T20:25:51.934Z,31.60
2023-04-14T20:28:59.617Z,32.20
2023-04-14T20:33:58.461Z,32.50
2023-04-14T20:37:34.749Z,33.00
2023-04-14T20:40:37.769Z,32.80
2023-04-14T21:01:26.514Z,33.00
2023-04-14T21:28:10.260Z,32.80
2023-04-14T21:31:54.860Z,33.00
2023-04-14T21:43:03.972Z,32.70
2023-04-14T21:50:23.046Z,32.60
2023-04-14T22:30:36.445Z,32.40
2023-04-14T22:34:49.722Z,32.30
2023-04-14T22:37:56.847Z,31.20
2023-04-14T22:45:21.349Z,32.40
2023-04-14T22:48:34.269Z,33.60
2023-04-14T22:51:55.671Z,34.50
2023-04-14T22:55:15.629Z,33.70
2023-04-14T22:59:10.988Z,33.50
2023-04-14T23:02:50.516Z,33.20
2023-04-14T23:06:33.948Z,33.30
2023-04-14T23:09:51.054Z,32.60
2023-04-14T23:12:52.966Z,33.20
2023-04-14T23:16:46.665Z,33.40
2023-04-14T23:23:58.012Z,31.90
2023-04-14T23:27:33.845Z,32.10
2023-04-14T23:31:10.048Z,31.50
2023-04-14T23:35:02.406Z,30.90
2023-04-14T23:38:24.546Z,31.60
2023-04-14T23:42:03.770Z,32.10
2023-04-14T23:54:02.269Z,31.30
2023-04-14T23:57:24.555Z,30.90
